Time;durP1;ratioP1;P1;durP2;ratioP2;P2;SDS_P1;SDS_P2;PMS_P1;PMS_P2;Temp;Humidity;BMP_temperature;BMP_pressure;BME280_temperature;BME280_humidity;BME280_pressure;Samples;Min_cycle;Max_cycle;Signal;HPM_P1;HPM_P2
2022/06/29 00:00:27;;;;;;;4.82;2.65;;;18.30;97.40;;;;;;5045744;28;20120;-72
2022/06/29 00:02:54;;;;;;;9.05;3.47;;;18.50;97.40;;;;;;5034807;28;20030;-73
2022/06/29 00:05:24;;;;;;;5.82;2.90;;;18.60;97.40;;;;;;5040784;28;20037;-75
2022/06/29 00:07:54;;;;;;;4.63;3.15;;;18.60;96.70;;;;;;5050947;28;20532;-75
2022/06/29 00:10:22;;;;;;;6.35;2.85;;;18.70;96.40;;;;;;5038687;28;20060;-72
2022/06/29 00:12:49;;;;;;;3.67;3.25;;;19.00;96.40;;;;;;5041550;28;20109;-74
2022/06/29 00:15:20;;;;;;;6.32;3.60;;;19.30;96.10;;;;;;5041203;28;20088;-74
2022/06/29 00:17:48;;;;;;;5.60;3.75;;;19.70;95.30;;;;;;5059831;28;20102;-73
2022/06/29 00:20:16;;;;;;;8.57;4.40;;;19.40;95.10;;;;;;5042874;28;20104;-73
2022/06/29 00:22:45;;;;;;;4.65;3.28;;;19.20;96.30;;;;;;5052697;28;20134;-73
2022/06/29 00:25:14;;;;;;;4.63;2.85;;;19.70;95.20;;;;;;5035863;28;20534;-73
2022/06/29 00:27:41;;;;;;;7.88;4.22;;;19.70;94.70;;;;;;5043701;28;20047;-73
2022/06/29 00:30:10;;;;;;;16.13;5.70;;;19.80;94.30;;;;;;5044422;28;20029;-73
2022/06/29 00:32:38;;;;;;;14.32;5.18;;;19.80;94.60;;;;;;5045356;28;20378;-73
2022/06/29 00:35:06;;;;;;;6.60;3.17;;;19.90;95.40;;;;;;5040946;28;20045;-73
2022/06/29 00:37:33;;;;;;;4.75;2.50;;;20.30;94.10;;;;;;5040888;28;20099;-72
2022/06/29 00:40:02;;;;;;;4.85;2.03;;;20.50;93.30;;;;;;5046371;28;20065;-72
2022/06/29 00:42:31;;;;;;;3.00;1.65;;;20.40;93.10;;;;;;5033744;28;20106;-73
2022/06/29 00:44:59;;;;;;;5.75;1.90;;;20.50;92.50;;;;;;5046853;28;20573;-72
2022/06/29 00:47:27;;;;;;;3.00;1.73;;;20.80;93.10;;;;;;5050031;28;20520;-73
2022/06/29 00:49:55;;;;;;;2.55;1.73;;;21.00;92.20;;;;;;5042821;28;20029;-73
2022/06/29 00:52:25;;;;;;;2.67;1.50;;;20.80;91.50;;;;;;5052267;28;20094;-74
2022/06/29 00:55:10;;;;;;;6.68;1.75;;;20.90;92.60;;;;;;5048414;28;20332;-73
2022/06/29 00:57:42;;;;;;;1.70;0.93;;;21.00;92.00;;;;;;5050369;28;20025;-74
2022/06/29 01:00:10;;;;;;;2.33;0.85;;;21.40;91.10;;;;;;5040757;28;20460;-73
2022/06/29 01:02:38;;;;;;;2.10;1.05;;;21.70;90.90;;;;;;5033255;28;20044;-74
2022/06/29 01:05:06;;;;;;;2.13;0.80;;;21.70;91.10;;;;;;5043870;28;20164;-74
2022/06/29 01:07:34;;;;;;;2.95;0.88;;;21.90;90.60;;;;;;5042361;28;20024;-74
2022/06/29 01:10:03;;;;;;;1.52;0.65;;;22.00;90.90;;;;;;5046685;28;20021;-74
2022/06/29 01:12:31;;;;;;;2.92;0.73;;;21.90;90.60;;;;;;5034137;28;20040;-74
2022/06/29 01:14:58;;;;;;;6.38;1.05;;;22.30;90.10;;;;;;5048122;28;20080;-74
2022/06/29 01:17:25;;;;;;;2.97;0.60;;;22.50;89.60;;;;;;5043379;28;20036;-74
2022/06/29 01:19:53;;;;;;;0.82;0.50;;;22.60;90.00;;;;;;5047095;28;20056;-75
2022/06/29 01:22:23;;;;;;;0.57;0.57;;;22.70;88.30;;;;;;5050434;28;20037;-74
2022/06/29 01:24:51;;;;;;;1.88;0.60;;;23.00;88.10;;;;;;5049925;28;20037;-73
2022/06/29 01:27:20;;;;;;;1.85;0.30;;;22.90;86.90;;;;;;5040163;28;20136;-73
2022/06/29 01:29:48;;;;;;;1.50;0.70;;;22.90;85.50;;;;;;5048434;28;20474;-72
2022/06/29 01:32:16;;;;;;;2.72;0.40;;;23.00;86.40;;;;;;5045128;28;20388;-73
2022/06/29 01:34:43;;;;;;;1.77;0.65;;;23.80;85.30;;;;;;5031463;28;20025;-73
2022/06/29 01:37:11;;;;;;;1.40;0.60;;;24.00;84.00;;;;;;5053022;28;20479;-73
2022/06/29 01:39:39;;;;;;;1.25;0.55;;;24.30;84.10;;;;;;5038679;28;20056;-72
2022/06/29 01:42:08;;;;;;;1.20;0.40;;;24.60;82.30;;;;;;5057608;28;20020;-73
2022/06/29 01:44:37;;;;;;;0.95;0.30;;;24.50;82.80;;;;;;5051875;28;20035;-73
2022/06/29 01:47:05;;;;;;;2.25;0.65;;;24.00;82.90;;;;;;5052710;28;20045;-74
2022/06/29 01:49:32;;;;;;;2.15;0.60;;;23.50;84.20;;;;;;5053742;28;20443;-74
2022/06/29 01:52:00;;;;;;;2.97;0.47;;;23.20;83.30;;;;;;5048099;28;20083;-74
2022/06/29 01:54:27;;;;;;;2.50;0.57;;;22.70;85.90;;;;;;5047123;28;20040;-74
2022/06/29 01:56:54;;;;;;;1.77;0.50;;;22.40;86.80;;;;;;5060240;28;20029;-74
2022/06/29 01:59:22;;;;;;;1.08;0.90;;;22.40;85.80;;;;;;5053127;28;20028;-73
2022/06/29 02:01:49;;;;;;;0.80;0.50;;;22.40;86.20;;;;;;5036587;28;20402;-73
2022/06/29 02:04:17;;;;;;;1.02;0.55;;;22.20;86.20;;;;;;5036591;28;20079;-72
2022/06/29 02:06:44;;;;;;;1.52;0.43;;;22.10;86.90;;;;;;5038122;28;20032;-73
2022/06/29 02:09:11;;;;;;;1.05;0.70;;;22.40;86.40;;;;;;5043970;28;20543;-72
2022/06/29 02:11:39;;;;;;;0.98;0.30;;;22.70;85.40;;;;;;5044987;28;20038;-72
2022/06/29 02:14:07;;;;;;;0.32;0.20;;;23.00;84.90;;;;;;5035314;28;20441;-73
2022/06/29 02:16:34;;;;;;;0.88;0.30;;;23.40;84.50;;;;;;5042538;28;20513;-74
2022/06/29 02:19:01;;;;;;;2.90;0.40;;;23.10;83.80;;;;;;5032419;28;20343;-72
2022/06/29 02:21:29;;;;;;;1.25;0.40;;;22.70;84.80;;;;;;5034528;28;20025;-73
2022/06/29 02:23:56;;;;;;;0.85;0.40;;;22.30;86.40;;;;;;5049196;28;20091;-74
2022/06/29 02:26:23;;;;;;;3.85;0.40;;;22.00;86.60;;;;;;5036103;28;20410;-73
2022/06/29 02:28:51;;;;;;;2.63;0.50;;;22.20;86.80;;;;;;5049960;28;20151;-72
2022/06/29 02:36:49;;;;;;;4.65;1.02;;;22.30;86.30;;;;;;5036047;28;20098;-74
2022/06/29 02:39:16;;;;;;;0.55;0.30;;;22.10;86.40;;;;;;5049945;28;20037;-72
2022/06/29 02:41:44;;;;;;;2.10;0.28;;;22.20;86.70;;;;;;5035884;28;20045;-71
2022/06/29 02:44:12;;;;;;;0.68;0.32;;;22.40;86.80;;;;;;5041581;28;20033;-72
2022/06/29 02:46:39;;;;;;;1.35;0.40;;;22.30;86.90;;;;;;5043827;28;20124;-72
2022/06/29 02:49:06;;;;;;;0.80;0.30;;;22.00;86.10;;;;;;5040213;28;20037;-73
2022/06/29 02:51:33;;;;;;;1.92;0.30;;;21.40;86.60;;;;;;5047673;28;20049;-72
2022/06/29 02:54:01;;;;;;;1.25;1.15;;;20.90;88.80;;;;;;5036455;28;20498;-72
2022/06/29 02:56:28;;;;;;;1.75;0.70;;;20.50;89.80;;;;;;5045129;28;20029;-72
2022/06/29 02:58:55;;;;;;;0.63;0.30;;;20.30;89.70;;;;;;5031190;28;20025;-72
2022/06/29 03:01:23;;;;;;;3.20;0.38;;;20.50;90.00;;;;;;5043599;28;20055;-72
2022/06/29 03:03:50;;;;;;;1.70;0.30;;;20.40;89.50;;;;;;5046795;28;20053;-74
2022/06/29 03:06:18;;;;;;;0.73;0.30;;;20.20;90.00;;;;;;5046222;28;20474;-73
2022/06/29 03:08:45;;;;;;;3.15;0.30;;;20.10;89.80;;;;;;5027136;28;20029;-73
2022/06/29 03:11:13;;;;;;;1.98;0.30;;;19.90;90.00;;;;;;5044865;28;20039;-73
2022/06/29 03:13:40;;;;;;;1.58;0.30;;;19.90;90.40;;;;;;5029679;28;20035;-71
2022/06/29 03:16:09;;;;;;;2.15;0.28;;;19.80;90.30;;;;;;5042807;28;20029;-72
2022/06/29 03:18:36;;;;;;;0.88;0.30;;;19.70;90.40;;;;;;5030121;28;20084;-72
2022/06/29 03:21:04;;;;;;;2.20;0.28;;;19.40;91.00;;;;;;5040976;28;20394;-71
2022/06/29 03:23:31;;;;;;;1.15;0.30;;;19.10;90.90;;;;;;5041565;28;20482;-74
2022/06/29 03:25:58;;;;;;;0.60;0.30;;;19.00;91.10;;;;;;5032448;28;20061;-72
2022/06/29 03:28:26;;;;;;;0.85;0.20;;;18.90;91.10;;;;;;5045196;28;20094;-72
2022/06/29 03:30:53;;;;;;;0.57;0.35;;;18.70;91.50;;;;;;5046101;28;20036;-72
2022/06/29 03:33:21;;;;;;;1.73;0.63;;;18.60;91.90;;;;;;5040279;28;20032;-74
2022/06/29 03:35:49;;;;;;;1.05;0.28;;;18.50;91.80;;;;;;5029633;28;20033;-73
2022/06/29 03:38:16;;;;;;;0.65;0.20;;;18.60;92.30;;;;;;5043115;28;20108;-74
2022/06/29 03:40:44;;;;;;;2.47;0.30;;;18.70;92.10;;;;;;5037532;28;20503;-72
2022/06/29 03:43:11;;;;;;;1.02;0.50;;;18.70;91.60;;;;;;5048380;28;20520;-73
2022/06/29 03:45:39;;;;;;;4.07;0.30;;;18.80;91.90;;;;;;5041911;28;20049;-73
2022/06/29 03:48:07;;;;;;;0.82;0.20;;;18.90;91.70;;;;;;5034889;28;20455;-72
2022/06/29 03:50:34;;;;;;;0.77;0.30;;;18.90;91.80;;;;;;5035754;28;20060;-72
2022/06/29 03:53:01;;;;;;;2.15;0.20;;;19.00;92.00;;;;;;5047680;28;20131;-72
2022/06/29 03:55:29;;;;;;;1.38;0.10;;;19.00;91.70;;;;;;5047599;28;20060;-72
2022/06/29 03:57:56;;;;;;;1.75;0.10;;;19.00;91.50;;;;;;5048231;28;20033;-72
2022/06/29 04:00:24;;;;;;;2.05;0.20;;;19.00;91.70;;;;;;5034167;28;20131;-73
2022/06/29 04:02:51;;;;;;;2.55;0.68;;;18.90;91.60;;;;;;5046888;28;20103;-73
2022/06/29 04:05:18;;;;;;;0.30;0.20;;;18.80;91.60;;;;;;5041822;28;20064;-74
2022/06/29 04:07:46;;;;;;;1.95;0.32;;;18.80;91.90;;;;;;5037943;28;20052;-73
2022/06/29 04:10:13;;;;;;;0.82;0.45;;;18.70;91.70;;;;;;5036229;28;20037;-73
2022/06/29 04:12:40;;;;;;;4.20;0.57;;;18.70;92.10;;;;;;5036916;28;20422;-73
2022/06/29 04:15:08;;;;;;;0.85;0.50;;;18.60;92.00;;;;;;5048284;28;20029;-72
2022/06/29 04:17:36;;;;;;;1.75;0.30;;;18.60;92.10;;;;;;5042248;28;20096;-72
2022/06/29 04:20:07;;;;;;;0.63;0.20;;;18.50;91.70;;;;;;5058587;28;20029;-71
2022/06/29 04:22:34;;;;;;;0.30;0.20;;;18.50;91.80;;;;;;5048553;28;20477;-72
2022/06/29 04:25:02;;;;;;;0.40;0.15;;;18.50;91.70;;;;;;5054024;28;20039;-72
2022/06/29 04:27:29;;;;;;;3.08;0.20;;;18.50;92.20;;;;;;5054658;28;20100;-72
2022/06/29 04:29:57;;;;;;;0.38;0.20;;;18.50;92.10;;;;;;5036339;28;20033;-72
2022/06/29 04:32:24;;;;;;;1.50;0.20;;;18.50;92.40;;;;;;5027359;28;20379;-72
2022/06/29 04:34:51;;;;;;;0.63;0.63;;;18.50;92.10;;;;;;5051149;28;20029;-72
2022/06/29 04:37:19;;;;;;;1.67;0.40;;;18.50;92.00;;;;;;5037815;28;20584;-73
2022/06/29 04:39:46;;;;;;;1.17;0.20;;;18.50;91.80;;;;;;5051233;28;20040;-73
2022/06/29 04:42:13;;;;;;;1.40;0.20;;;18.50;91.90;;;;;;5047951;28;20021;-73
2022/06/29 04:44:40;;;;;;;2.65;0.35;;;18.50;92.00;;;;;;5037837;28;20174;-71
2022/06/29 04:47:09;;;;;;;2.10;0.40;;;18.40;91.20;;;;;;5049168;28;20386;-73
2022/06/29 04:49:36;;;;;;;1.50;0.20;;;18.20;91.80;;;;;;5051205;28;20474;-72
2022/06/29 04:52:04;;;;;;;0.88;0.32;;;18.20;92.50;;;;;;5052090;28;20124;-73
2022/06/29 04:54:31;;;;;;;1.15;0.30;;;18.10;92.60;;;;;;5043618;28;20309;-73
2022/06/29 04:56:59;;;;;;;0.30;0.15;;;18.10;92.10;;;;;;5048649;28;20028;-74
2022/06/29 04:59:26;;;;;;;0.28;0.10;;;18.00;92.50;;;;;;5037685;28;20032;-72
2022/06/29 05:01:54;;;;;;;1.77;0.20;;;17.90;92.20;;;;;;5047654;28;20486;-73
2022/06/29 05:04:21;;;;;;;0.20;0.10;;;17.80;92.50;;;;;;5052483;28;20049;-72
2022/06/29 05:06:48;;;;;;;1.25;0.20;;;17.80;92.50;;;;;;5052907;28;20127;-74
2022/06/29 05:09:16;;;;;;;1.77;0.28;;;17.70;93.10;;;;;;5053384;28;20064;-72
2022/06/29 05:11:43;;;;;;;1.05;0.30;;;17.70;93.20;;;;;;5060639;28;20032;-74
2022/06/29 05:14:10;;;;;;;0.30;0.20;;;17.70;92.80;;;;;;5050504;28;20494;-72
2022/06/29 05:16:38;;;;;;;0.88;0.28;;;17.60;93.10;;;;;;5046424;28;20033;-72
2022/06/29 05:19:06;;;;;;;0.82;0.77;;;17.70;92.80;;;;;;5049558;28;20033;-73
2022/06/29 05:21:39;;;;;;;2.25;0.40;;;17.60;93.00;;;;;;5046623;28;20021;-73
2022/06/29 05:24:25;;;;;;;2.95;0.60;;;17.50;93.20;;;;;;5049222;28;20041;-72
2022/06/29 05:26:56;;;;;;;0.90;0.13;;;17.50;93.10;;;;;;5042949;28;20155;-72
2022/06/29 05:29:25;;;;;;;0.75;0.57;;;17.40;93.10;;;;;;5038870;28;20399;-72
2022/06/29 05:31:53;;;;;;;2.05;0.25;;;17.40;93.40;;;;;;5045460;28;20095;-72
2022/06/29 05:34:21;;;;;;;2.28;0.30;;;17.20;93.80;;;;;;5052411;28;20028;-72
2022/06/29 05:36:48;;;;;;;0.80;0.20;;;17.20;93.90;;;;;;5043754;28;20025;-72
2022/06/29 05:39:15;;;;;;;1.38;0.38;;;17.10;94.00;;;;;;5030253;28;20036;-72
2022/06/29 05:41:43;;;;;;;0.82;0.30;;;17.10;93.90;;;;;;5037184;28;20036;-72
2022/06/29 05:44:11;;;;;;;0.47;0.40;;;17.00;94.10;;;;;;5044343;28;20094;-72
2022/06/29 05:46:38;;;;;;;1.40;0.30;;;16.90;94.30;;;;;;5035680;28;20082;-73
2022/06/29 05:49:05;;;;;;;4.55;0.40;;;16.90;94.30;;;;;;5043914;28;20343;-73
2022/06/29 05:51:33;;;;;;;2.60;0.30;;;16.80;94.40;;;;;;5048425;28;20033;-73
2022/06/29 05:54:00;;;;;;;0.88;0.30;;;16.80;94.50;;;;;;5045056;28;20037;-72
2022/06/29 05:56:27;;;;;;;0.95;0.40;;;16.70;94.70;;;;;;5050203;28;20085;-73
2022/06/29 05:58:55;;;;;;;1.67;0.63;;;16.60;94.90;;;;;;5046774;28;20040;-72
2022/06/29 06:01:22;;;;;;;2.90;0.40;;;16.60;95.10;;;;;;5045744;28;20029;-73
2022/06/29 06:03:49;;;;;;;1.65;0.30;;;16.60;94.70;;;;;;5038304;28;20109;-73
2022/06/29 06:06:21;;;;;;;0.85;0.85;;;16.60;94.70;;;;;;5037334;28;20026;-71
2022/06/29 06:08:48;;;;;;;3.72;0.68;;;16.60;94.70;;;;;;5033271;28;20448;-72
2022/06/29 06:11:16;;;;;;;2.10;0.70;;;16.60;95.00;;;;;;5047733;28;20048;-72
2022/06/29 06:13:43;;;;;;;4.97;1.05;;;16.50;94.90;;;;;;5035176;28;20347;-72
2022/06/29 06:16:10;;;;;;;3.33;0.70;;;16.50;94.90;;;;;;5042872;28;20041;-73
2022/06/29 06:18:38;;;;;;;3.75;0.90;;;16.50;95.20;;;;;;5049174;28;20072;-74
2022/06/29 06:21:05;;;;;;;4.68;0.70;;;16.50;95.40;;;;;;5035936;28;20037;-71
2022/06/29 06:23:32;;;;;;;1.35;0.57;;;16.50;95.70;;;;;;5047053;28;20025;-73
2022/06/29 06:26:00;;;;;;;3.40;0.70;;;16.40;95.60;;;;;;5050232;28;20025;-72
2022/06/29 06:28:27;;;;;;;0.88;0.70;;;16.40;95.60;;;;;;5048678;28;20029;-72
2022/06/29 06:30:54;;;;;;;1.80;0.50;;;16.40;95.40;;;;;;5047610;28;20021;-74
2022/06/29 06:33:25;;;;;;;1.13;0.30;;;16.30;95.70;;;;;;5049385;28;20033;-73
2022/06/29 06:35:52;;;;;;;1.73;0.60;;;16.20;96.20;;;;;;5045162;28;20032;-73
2022/06/29 06:38:19;;;;;;;1.75;0.63;;;16.10;96.30;;;;;;5049232;28;20032;-72
2022/06/29 06:43:32;;;;;;;2.77;0.53;;;15.90;96.30;;;;;;5038887;28;20035;-72
2022/06/29 06:45:59;;;;;;;3.20;1.05;;;15.90;96.40;;;;;;5034784;28;20132;-73
2022/06/29 06:48:27;;;;;;;3.25;0.50;;;15.80;96.80;;;;;;5029778;28;20098;-72
2022/06/29 06:50:54;;;;;;;1.15;0.50;;;15.80;96.50;;;;;;5024388;28;20145;-73
2022/06/29 06:53:22;;;;;;;3.60;0.93;;;15.70;96.60;;;;;;5042974;28;20179;-73
2022/06/29 06:55:50;;;;;;;2.15;0.70;;;15.60;96.90;;;;;;5048507;28;20037;-74
2022/06/29 06:58:17;;;;;;;5.82;0.90;;;15.50;97.10;;;;;;5047197;28;20467;-74
2022/06/29 07:00:45;;;;;;;2.50;0.65;;;15.50;97.10;;;;;;5042956;28;20056;-73
2022/06/29 07:03:12;;;;;;;2.45;0.80;;;15.40;97.10;;;;;;5044499;28;20043;-73
2022/06/29 07:05:39;;;;;;;3.65;1.50;;;15.30;97.40;;;;;;5040152;28;20060;-73
2022/06/29 07:08:07;;;;;;;6.07;1.40;;;15.20;97.60;;;;;;5029289;28;20033;-73
2022/06/29 07:10:34;;;;;;;7.03;2.33;;;15.10;97.80;;;;;;5033648;28;20041;-74
2022/06/29 07:13:03;;;;;;;15.52;2.55;;;15.10;97.80;;;;;;5033418;28;20028;-73
2022/06/29 07:15:30;;;;;;;4.75;1.38;;;15.00;97.90;;;;;;5036901;28;20037;-72
2022/06/29 07:17:58;;;;;;;4.72;1.65;;;15.00;98.00;;;;;;5047984;28;20112;-72
2022/06/29 07:20:30;;;;;;;7.63;1.75;;;15.00;98.40;;;;;;5040991;28;20039;-72
2022/06/29 07:22:58;;;;;;;3.10;1.05;;;15.00;98.20;;;;;;5031402;28;20142;-74
2022/06/29 07:25:25;;;;;;;4.45;1.67;;;14.90;98.40;;;;;;5027881;28;20086;-73
2022/06/29 07:27:52;;;;;;;3.58;0.98;;;14.90;98.40;;;;;;5048365;28;20021;-74
2022/06/29 07:30:20;;;;;;;1.83;0.90;;;14.90;98.60;;;;;;5046623;28;20029;-74
2022/06/29 07:32:47;;;;;;;2.00;1.08;;;14.90;98.60;;;;;;5060952;28;20032;-75
2022/06/29 07:35:14;;;;;;;1.23;0.77;;;14.90;98.80;;;;;;5038584;28;20111;-73
2022/06/29 07:37:45;;;;;;;1.55;0.60;;;14.80;98.90;;;;;;5043576;28;20118;-73
2022/06/29 07:40:13;;;;;;;5.05;0.90;;;14.80;99.00;;;;;;5043691;28;20101;-73
2022/06/29 07:42:40;;;;;;;5.32;0.95;;;14.80;99.10;;;;;;5044833;28;20029;-74
2022/06/29 07:45:08;;;;;;;9.77;1.02;;;14.70;99.20;;;;;;5045987;28;20064;-75
2022/06/29 07:47:35;;;;;;;2.58;1.30;;;14.70;99.30;;;;;;5035631;28;20028;-73
2022/06/29 07:50:04;;;;;;;1.73;0.82;;;14.70;99.40;;;;;;5034062;28;20477;-73
2022/06/29 07:52:33;;;;;;;2.63;1.27;;;14.60;99.50;;;;;;5041437;28;20491;-74
2022/06/29 07:55:01;;;;;;;5.45;2.20;;;14.60;99.50;;;;;;5051129;28;21904;-74
2022/06/29 07:57:30;;;;;;;5.68;2.45;;;14.60;99.70;;;;;;5041936;28;20033;-73
2022/06/29 07:59:57;;;;;;;8.93;3.60;;;14.60;99.80;;;;;;5051070;28;20041;-73
2022/06/29 08:02:25;;;;;;;2.85;1.80;;;14.50;99.90;;;;;;5040212;28;20160;-73
2022/06/29 08:04:52;;;;;;;5.03;1.70;;;14.50;99.90;;;;;;5040367;28;20094;-74
2022/06/29 08:07:20;;;;;;;4.68;1.10;;;14.50;99.90;;;;;;5039875;28;20136;-73
2022/06/29 08:09:48;;;;;;;5.85;2.28;;;14.50;99.90;;;;;;5046283;28;20052;-75
2022/06/29 08:12:16;;;;;;;3.20;1.20;;;14.40;99.90;;;;;;5047950;28;20026;-74
2022/06/29 08:14:44;;;;;;;4.28;1.08;;;14.40;99.90;;;;;;5050569;28;20038;-74
2022/06/29 08:17:11;;;;;;;4.38;1.50;;;14.50;99.90;;;;;;5051565;28;20040;-75
2022/06/29 08:19:38;;;;;;;2.33;1.00;;;14.40;99.90;;;;;;5049673;28;20137;-74
2022/06/29 08:22:06;;;;;;;7.13;1.13;;;14.40;99.90;;;;;;5046691;28;20034;-74
2022/06/29 08:24:33;;;;;;;4.10;1.10;;;14.30;99.90;;;;;;5040245;28;20123;-74
2022/06/29 08:27:01;;;;;;;9.75;0.90;;;14.40;99.90;;;;;;5048829;28;20565;-74
2022/06/29 08:29:28;;;;;;;2.75;0.90;;;14.30;99.90;;;;;;5048636;28;20111;-74
2022/06/29 08:31:55;;;;;;;5.47;1.02;;;14.30;99.90;;;;;;5047236;28;20561;-74
2022/06/29 08:34:43;;;;;;;2.75;1.05;;;14.30;99.90;;;;;;5050871;28;20449;-74
2022/06/29 08:37:10;;;;;;;2.20;0.95;;;14.20;99.90;;;;;;5049927;28;20041;-74
2022/06/29 08:39:37;;;;;;;2.38;1.45;;;14.20;99.90;;;;;;5042003;28;20387;-74
2022/06/29 08:42:06;;;;;;;4.22;1.20;;;14.20;99.90;;;;;;5037814;28;20029;-74
2022/06/29 08:44:36;;;;;;;5.97;1.75;;;14.10;99.90;;;;;;5051278;28;20044;-73
2022/06/29 08:47:10;;;;;;;5.93;2.00;;;14.10;99.90;;;;;;5036771;28;20044;-73
2022/06/29 08:49:39;;;;;;;4.70;2.30;;;14.10;99.90;;;;;;5032435;28;20022;-74
2022/06/29 08:52:09;;;;;;;5.03;1.95;;;14.00;99.90;;;;;;5049366;28;20424;-73
2022/06/29 08:54:46;;;;;;;4.32;2.45;;;13.90;99.90;;;;;;5050346;28;20052;-74
2022/06/29 08:57:14;;;;;;;5.53;2.47;;;13.80;99.90;;;;;;5039416;28;20218;-73
2022/06/29 08:59:41;;;;;;;5.40;3.40;;;13.80;99.90;;;;;;5034864;28;20440;-74
2022/06/29 09:02:10;;;;;;;7.63;2.50;;;13.70;99.90;;;;;;5051909;28;20047;-73
2022/06/29 09:04:37;;;;;;;3.95;2.22;;;13.60;99.90;;;;;;5035117;28;20175;-74
2022/06/29 09:07:05;;;;;;;3.03;1.70;;;13.60;99.90;;;;;;5061922;28;20063;-74
2022/06/29 09:09:53;;;;;;;3.70;1.40;;;13.50;99.90;;;;;;5063164;28;20206;-73
2022/06/29 09:12:20;;;;;;;3.22;1.75;;;13.50;99.90;;;;;;5048896;28;20025;-73
2022/06/29 09:14:47;;;;;;;2.78;1.65;;;13.40;99.90;;;;;;5050370;28;20576;-74
2022/06/29 09:17:18;;;;;;;4.88;2.42;;;13.40;99.90;;;;;;5059457;28;20063;-74
2022/06/29 09:19:47;;;;;;;2.92;1.88;;;13.40;99.90;;;;;;5048944;28;20604;-73
2022/06/29 09:22:15;;;;;;;6.35;3.88;;;13.30;99.90;;;;;;5049388;28;20025;-73
2022/06/29 09:24:42;;;;;;;8.35;4.90;;;13.30;99.90;;;;;;5047595;28;20148;-73
2022/06/29 09:27:12;;;;;;;7.18;4.18;;;13.20;99.90;;;;;;5041947;28;20090;-73
2022/06/29 09:29:41;;;;;;;6.25;3.70;;;13.20;99.90;;;;;;5044512;28;20032;-73
2022/06/29 09:32:15;;;;;;;9.38;2.85;;;13.20;99.90;;;;;;5042460;28;20124;-73
2022/06/29 09:34:48;;;;;;;5.28;2.97;;;13.10;99.90;;;;;;5043197;28;20385;-72
2022/06/29 09:37:18;;;;;;;5.15;3.08;;;13.00;99.90;;;;;;5050864;28;20041;-74
2022/06/29 09:39:45;;;;;;;6.72;3.20;;;13.00;99.90;;;;;;5035926;28;20025;-74
2022/06/29 09:42:27;;;;;;;8.65;4.40;;;13.00;99.90;;;;;;5042179;28;20045;-74
2022/06/29 09:44:55;;;;;;;5.10;3.15;;;13.00;99.90;;;;;;5045633;28;20041;-73
2022/06/29 09:47:23;;;;;;;6.80;4.03;;;12.90;99.90;;;;;;5036643;28;20475;-74
2022/06/29 09:50:02;;;;;;;5.70;3.47;;;12.80;99.90;;;;;;5037758;28;20036;-74
2022/06/29 09:52:31;;;;;;;5.63;3.53;;;12.80;99.90;;;;;;5049090;28;20453;-74
2022/06/29 09:55:00;;;;;;;6.60;3.97;;;12.70;99.90;;;;;;5039419;28;20419;-74
2022/06/29 09:57:31;;;;;;;8.60;4.18;;;12.70;99.90;;;;;;5032263;28;20025;-74
2022/06/29 10:02:53;;;;;;;9.10;4.00;;;12.60;99.90;;;;;;5034840;28;20033;-73
2022/06/29 10:05:22;;;;;;;7.65;4.03;;;12.60;99.90;;;;;;5033654;28;20049;-74
2022/06/29 10:07:55;;;;;;;9.52;3.70;;;12.50;99.90;;;;;;5037510;28;20087;-74
2022/06/29 10:10:25;;;;;;;9.85;4.75;;;12.50;99.90;;;;;;5044222;28;20160;-74
2022/06/29 10:16:02;;;;;;;10.60;5.40;;;12.40;99.90;;;;;;5047571;28;20044;-74
2022/06/29 10:18:35;;;;;;;9.68;4.32;;;12.40;99.90;;;;;;5049330;28;20106;-73
2022/06/29 10:21:12;;;;;;;6.10;3.65;;;12.30;99.90;;;;;;5044746;28;20116;-74
2022/06/29 10:23:53;;;;;;;10.20;5.22;;;12.30;99.90;;;;;;5047633;28;20044;-74
2022/06/29 10:26:39;;;;;;;8.43;5.15;;;12.20;99.90;;;;;;5045881;28;20183;-73
2022/06/29 10:29:06;;;;;;;7.63;5.43;;;12.20;99.90;;;;;;5029544;28;20111;-73
2022/06/29 10:31:56;;;;;;;8.85;5.68;;;12.20;99.90;;;;;;5034526;28;20034;-73
2022/06/29 10:34:33;;;;;;;12.55;5.03;;;12.10;99.90;;;;;;5040455;28;20029;-74
2022/06/29 10:37:01;;;;;;;7.50;4.35;;;12.10;99.90;;;;;;5031415;28;20034;-73
2022/06/29 10:39:50;;;;;;;9.35;5.07;;;12.10;99.90;;;;;;5041204;28;20112;-74
2022/06/29 10:45:17;;;;;;;9.27;4.57;;;12.10;99.90;;;;;;5043054;28;20048;-75
2022/06/29 10:47:57;;;;;;;5.70;3.85;;;12.10;99.90;;;;;;5029737;28;20029;-75
2022/06/29 10:50:28;;;;;;;9.68;4.75;;;12.10;99.90;;;;;;5041603;28;20033;-75
2022/06/29 10:52:57;;;;;;;8.70;4.43;;;12.10;99.90;;;;;;5055366;28;20123;-75
2022/06/29 10:55:30;;;;;;;8.95;5.10;;;12.10;99.90;;;;;;5049718;28;20032;-75
2022/06/29 10:57:58;;;;;;;6.35;4.70;;;12.00;99.90;;;;;;5032608;28;20501;-75
2022/06/29 11:00:34;;;;;;;11.73;5.85;;;12.00;99.90;;;;;;5047855;28;20021;-73
2022/06/29 11:03:10;;;;;;;9.57;6.40;;;12.00;99.90;;;;;;5051632;28;20039;-73
2022/06/29 11:12:01;;;;;;;8.73;5.50;;;11.90;99.90;;;;;;5052450;28;20056;-74
2022/06/29 11:13:58;;;;;;;8.70;6.93;;;11.80;99.90;;;;;;5029451;28;20055;-74
2022/06/29 11:16:34;;;;;;;10.18;6.82;;;11.80;99.90;;;;;;5041817;28;20025;-74
2022/06/29 11:19:01;;;;;;;;;;;11.70;99.90;;;;;;5048743;28;20033;-74
2022/06/29 11:21:29;;;;;;;12.30;7.00;;;11.70;99.90;;;;;;5051310;28;19916;-74
2022/06/29 11:23:58;;;;;;;13.05;7.18;;;11.70;99.90;;;;;;5048752;28;20559;-74
2022/06/29 11:26:27;;;;;;;11.90;7.72;;;11.80;99.90;;;;;;5043749;28;20040;-73
2022/06/29 11:28:57;;;;;;;17.63;7.72;;;11.80;99.90;;;;;;5045723;28;20025;-73
2022/06/29 11:31:26;;;;;;;10.82;6.07;;;11.90;99.90;;;;;;5042327;28;20039;-73
2022/06/29 11:33:54;;;;;;;13.18;6.00;;;12.00;99.90;;;;;;5051053;28;20768;-73
2022/06/29 11:36:25;;;;;;;9.32;6.00;;;12.00;99.90;;;;;;5039515;28;20118;-74
2022/06/29 11:38:55;;;;;;;7.88;5.53;;;12.00;99.90;;;;;;5029662;28;20546;-74
2022/06/29 11:43:03;;;;;;;17.63;8.35;;;12.10;99.90;;;;;;5040660;28;20037;-74
2022/06/29 11:44:27;;;;;;;10.68;7.55;;;12.10;99.90;;;;;;5035393;28;20072;-74
2022/06/29 11:46:56;;;;;;;17.25;9.52;;;12.00;99.90;;;;;;5040427;28;20151;-74
2022/06/29 11:49:39;;;;;;;19.98;11.90;;;12.00;99.90;;;;;;5054570;28;20436;-73
2022/06/29 11:52:13;;;;;;;17.13;9.75;;;11.90;99.90;;;;;;5045364;28;20386;-74
2022/06/29 11:54:52;;;;;;;10.52;8.05;;;11.90;99.90;;;;;;5041681;28;20063;-73
2022/06/29 11:57:20;;;;;;;12.98;8.52;;;11.90;99.90;;;;;;5058229;28;20037;-74
2022/06/29 11:59:48;;;;;;;14.63;7.45;;;11.80;99.90;;;;;;5055953;28;20394;-74
2022/06/29 12:02:19;;;;;;;13.52;7.32;;;11.80;99.90;;;;;;5057965;28;20444;-74
2022/06/29 12:04:48;;;;;;;15.95;9.43;;;11.80;99.90;;;;;;5042722;28;20055;-74
2022/06/29 12:07:18;;;;;;;20.13;9.43;;;11.70;99.90;;;;;;5037885;28;20082;-74
2022/06/29 12:09:46;;;;;;;11.75;7.60;;;11.70;99.90;;;;;;5034024;28;20075;-74
2022/06/29 12:12:14;;;;;;;15.57;8.13;;;11.70;99.90;;;;;;5048131;28;20029;-74
2022/06/29 12:14:42;;;;;;;12.65;6.97;;;11.70;99.90;;;;;;5037017;28;20370;-74
2022/06/29 12:17:13;;;;;;;10.75;7.32;;;11.60;99.90;;;;;;5037515;28;20739;-74
2022/06/29 12:19:41;;;;;;;10.48;6.60;;;11.60;99.90;;;;;;5046465;28;20431;-74
2022/06/29 12:22:08;;;;;;;10.43;6.72;;;11.50;99.90;;;;;;5035678;28;20516;-74
2022/06/29 12:24:36;;;;;;;13.68;7.40;;;11.50;99.90;;;;;;5045928;28;20037;-73
2022/06/29 12:27:04;;;;;;;13.20;7.25;;;11.50;99.90;;;;;;5045228;28;20036;-74
2022/06/29 12:29:31;;;;;;;8.25;6.05;;;11.40;99.90;;;;;;5044830;28;20203;-74
2022/06/29 12:31:59;;;;;;;11.73;7.35;;;11.40;99.90;;;;;;5037637;28;20094;-74
2022/06/29 12:34:26;;;;;;;11.25;6.85;;;11.30;99.90;;;;;;5043927;28;20048;-74
2022/06/29 12:36:53;;;;;;;13.32;7.47;;;11.30;99.90;;;;;;5049446;28;20018;-74
2022/06/29 12:39:21;;;;;;;12.05;6.38;;;11.30;99.90;;;;;;5034481;28;20031;-73
2022/06/29 12:41:48;;;;;;;12.98;6.30;;;11.20;99.90;;;;;;5049006;28;20470;-77
2022/06/29 12:44:15;;;;;;;11.63;6.40;;;11.20;99.90;;;;;;5048699;28;20112;-74
2022/06/29 12:46:43;;;;;;;9.88;6.28;;;11.10;99.90;;;;;;5044901;28;20116;-74
2022/06/29 12:49:10;;;;;;;10.23;6.88;;;11.10;99.90;;;;;;5060206;28;20037;-74
2022/06/29 12:51:37;;;;;;;10.32;5.78;;;11.00;99.90;;;;;;5042943;28;20080;-74
2022/06/29 12:54:05;;;;;;;10.85;5.32;;;11.00;99.90;;;;;;5048423;28;20121;-73
2022/06/29 12:56:32;;;;;;;9.00;6.35;;;10.90;99.90;;;;;;5050033;28;20029;-75
2022/06/29 12:58:59;;;;;;;9.15;6.30;;;10.90;99.90;;;;;;5037333;28;20363;-75
2022/06/29 13:01:27;;;;;;;11.52;5.70;;;10.80;99.90;;;;;;5050518;28;20053;-75
2022/06/29 13:03:54;;;;;;;8.57;6.40;;;10.80;99.90;;;;;;5046751;28;20032;-74
2022/06/29 13:06:21;;;;;;;10.35;5.72;;;10.70;99.90;;;;;;5044825;28;20612;-74
2022/06/29 13:08:49;;;;;;;9.15;5.78;;;10.70;99.90;;;;;;5038582;28;20104;-74
2022/06/29 13:11:16;;;;;;;9.00;5.72;;;10.70;99.90;;;;;;5047717;28;20565;-74
2022/06/29 13:13:43;;;;;;;11.73;6.25;;;10.70;99.90;;;;;;5049570;28;20459;-74
2022/06/29 13:16:11;;;;;;;9.32;5.95;;;10.60;99.90;;;;;;5042784;28;20056;-74